createdAt,value
2018-05-26T00:01:14.039Z,13.70
2018-05-26T00:03:41.627Z,14.00
2018-05-26T00:06:09.175Z,14.87
2018-05-26T00:08:36.917Z,14.60
2018-05-26T00:11:04.625Z,13.50
2018-05-26T00:13:32.459Z,12.70
2018-05-26T00:16:00.148Z,13.97
2018-05-26T00:18:27.779Z,13.87
2018-05-26T00:20:55.415Z,15.30
2018-05-26T00:23:23.368Z,14.07
2018-05-26T00:25:51.683Z,13.80
2018-05-26T00:28:19.627Z,13.07
2018-05-26T00:30:47.518Z,14.70
2018-05-26T00:33:15.095Z,15.90
2018-05-26T00:35:42.649Z,13.60
2018-05-26T00:38:10.547Z,15.03
2018-05-26T00:40:38.332Z,13.10
2018-05-26T00:43:06.136Z,13.27
2018-05-26T00:45:33.807Z,16.00
2018-05-26T00:48:01.356Z,13.60
2018-05-26T00:50:29.069Z,12.80
2018-05-26T00:52:57.868Z,13.90
2018-05-26T00:55:25.656Z,14.27
2018-05-26T00:57:53.599Z,13.40
2018-05-26T01:00:21.568Z,17.50
2018-05-26T01:02:49.120Z,13.97
2018-05-26T01:05:16.668Z,14.73
2018-05-26T01:07:45.168Z,16.50
2018-05-26T01:10:12.915Z,14.67
2018-05-26T01:12:40.846Z,16.33
2018-05-26T01:15:08.436Z,13.20
2018-05-26T01:17:36.123Z,14.47
2018-05-26T01:20:03.876Z,21.23
2018-05-26T01:22:31.837Z,16.40
2018-05-26T01:24:59.509Z,17.10
2018-05-26T01:27:27.052Z,14.90
2018-05-26T01:29:55.564Z,17.67
2018-05-26T01:32:23.315Z,18.03
2018-05-26T01:34:51.259Z,15.90
2018-05-26T01:37:19.895Z,15.77
2018-05-26T01:39:47.773Z,13.90
2018-05-26T01:42:15.620Z,12.70
2018-05-26T01:44:43.256Z,12.90
2018-05-26T01:47:10.809Z,11.77
2018-05-26T01:49:38.381Z,11.87
2018-05-26T01:52:05.960Z,12.13
2018-05-26T01:54:33.736Z,12.00
2018-05-26T01:57:01.463Z,14.27
2018-05-26T01:59:29.627Z,11.07
2018-05-26T02:01:57.257Z,13.23
2018-05-26T02:04:24.948Z,13.43
2018-05-26T02:06:52.624Z,11.87
2018-05-26T02:09:20.560Z,13.27
2018-05-26T02:11:49.072Z,12.47
2018-05-26T02:14:17.077Z,14.20
2018-05-26T02:16:45.123Z,11.77
2018-05-26T02:19:13.014Z,13.27
2018-05-26T02:21:40.752Z,15.10
2018-05-26T02:24:08.691Z,12.77
2018-05-26T02:26:36.316Z,13.40
2018-05-26T02:29:03.900Z,13.40
2018-05-26T02:31:32.492Z,15.50
2018-05-26T02:34:00.292Z,13.13
2018-05-26T02:36:28.012Z,12.33
2018-05-26T02:38:55.931Z,12.40
2018-05-26T02:41:23.478Z,16.47
2018-05-26T02:43:51.311Z,13.73
2018-05-26T02:46:19.053Z,14.07
2018-05-26T02:48:46.819Z,12.53
2018-05-26T02:51:15.175Z,14.23
2018-05-26T02:53:43.199Z,13.70
2018-05-26T02:56:10.989Z,15.07
2018-05-26T02:58:38.843Z,13.87
2018-05-26T03:01:06.395Z,12.03
2018-05-26T03:03:34.380Z,14.00
2018-05-26T03:06:07.729Z,15.40
2018-05-26T03:08:40.925Z,14.70
2018-05-26T03:11:14.064Z,14.67
2018-05-26T03:13:47.431Z,12.77
2018-05-26T03:16:20.841Z,13.70
2018-05-26T03:18:48.592Z,14.07
2018-05-26T03:21:16.343Z,14.50
2018-05-26T03:23:44.004Z,14.63
2018-05-26T03:26:11.756Z,13.03
2018-05-26T03:28:39.527Z,14.70
2018-05-26T03:31:07.210Z,12.97
2018-05-26T03:33:35.056Z,14.93
2018-05-26T03:36:02.919Z,14.87
2018-05-26T03:38:30.759Z,19.33
2018-05-26T03:40:59.096Z,18.83
2018-05-26T03:43:26.896Z,20.23
2018-05-26T03:45:55.244Z,18.07
2018-05-26T03:48:22.997Z,16.00
2018-05-26T03:50:50.844Z,18.33
2018-05-26T03:53:18.423Z,18.07
2018-05-26T03:55:58.046Z,15.37
2018-05-26T03:58:37.931Z,16.20
2018-05-26T04:01:05.666Z,15.30
2018-05-26T04:03:33.255Z,16.87
2018-05-26T04:06:03.419Z,16.80
2018-05-26T04:08:31.388Z,19.17
2018-05-26T04:10:59.574Z,20.03
2018-05-26T04:13:27.455Z,20.33
2018-05-26T04:15:55.000Z,18.87
2018-05-26T04:18:22.895Z,16.50
2018-05-26T04:20:50.929Z,15.63
2018-05-26T04:23:18.468Z,16.10
2018-05-26T04:25:46.008Z,16.40
2018-05-26T04:28:13.837Z,15.53
2018-05-26T04:30:41.511Z,14.37
2018-05-26T04:33:09.544Z,16.37
2018-05-26T04:35:37.185Z,17.67
2018-05-26T04:38:04.828Z,15.23
2018-05-26T04:40:32.852Z,17.97
2018-05-26T04:43:00.492Z,14.40
2018-05-26T04:45:28.096Z,15.40
2018-05-26T04:47:55.900Z,12.17
2018-05-26T04:50:23.827Z,13.27
2018-05-26T04:52:51.650Z,13.23
2018-05-26T04:55:19.488Z,12.43
2018-05-26T04:57:47.192Z,12.83
2018-05-26T05:00:14.735Z,12.93
2018-05-26T05:02:42.336Z,12.20
2018-05-26T05:05:10.202Z,11.50
2018-05-26T05:07:37.848Z,11.20
2018-05-26T05:10:05.489Z,11.70
2018-05-26T05:12:34.192Z,11.00
2018-05-26T05:15:01.823Z,10.90
2018-05-26T05:17:29.461Z,9.63
2018-05-26T05:19:57.425Z,10.77
2018-05-26T05:22:25.738Z,9.03
2018-05-26T05:24:53.764Z,10.63
2018-05-26T05:27:22.407Z,9.13
2018-05-26T05:29:50.516Z,8.77
2018-05-26T05:32:18.914Z,8.37
2018-05-26T05:34:46.521Z,9.07
2018-05-26T05:37:14.236Z,8.23
2018-05-26T05:39:41.931Z,9.00
2018-05-26T05:42:09.579Z,7.10
2018-05-26T05:44:37.121Z,7.70
2018-05-26T05:47:04.939Z,7.40
2018-05-26T05:49:32.588Z,7.50
2018-05-26T05:52:01.157Z,8.57
2018-05-26T05:54:28.703Z,8.33
2018-05-26T05:56:56.421Z,7.73
2018-05-26T05:59:24.864Z,6.77
2018-05-26T06:01:52.748Z,6.20
2018-05-26T06:04:20.324Z,6.17
2018-05-26T06:06:47.916Z,7.13
2018-05-26T06:09:15.482Z,8.00
2018-05-26T06:11:43.385Z,8.13
2018-05-26T06:14:11.246Z,9.13
2018-05-26T06:16:38.905Z,8.40
2018-05-26T06:19:06.501Z,8.47
2018-05-26T06:21:34.201Z,7.23
2018-05-26T06:24:01.747Z,7.43
2018-05-26T06:26:29.573Z,7.90
2018-05-26T06:28:57.620Z,6.20
2018-05-26T06:31:25.456Z,6.73
2018-05-26T06:33:53.343Z,6.57
2018-05-26T06:36:21.171Z,7.43
2018-05-26T06:38:49.257Z,6.10
2018-05-26T06:41:17.344Z,6.90
2018-05-26T06:43:44.888Z,6.17
2018-05-26T06:46:12.633Z,5.80
2018-05-26T06:48:40.292Z,5.57
2018-05-26T06:51:07.840Z,7.37
2018-05-26T06:53:35.605Z,5.27
2018-05-26T06:56:03.513Z,7.07
2018-05-26T06:58:31.137Z,5.40
2018-05-26T07:00:58.916Z,6.30
2018-05-26T07:03:26.713Z,5.17
2018-05-26T07:05:54.260Z,6.77
2018-05-26T07:08:22.020Z,6.27
2018-05-26T07:10:49.872Z,5.43
2018-05-26T07:13:17.645Z,8.77
2018-05-26T07:15:45.266Z,4.53
2018-05-26T07:18:13.328Z,6.00
2018-05-26T07:20:41.636Z,4.47
2018-05-26T07:23:09.856Z,4.87
2018-05-26T07:25:37.707Z,5.60
2018-05-26T07:28:05.562Z,4.33
2018-05-26T07:30:33.386Z,4.33
2018-05-26T07:33:01.277Z,5.83
2018-05-26T07:35:29.200Z,4.13
2018-05-26T07:37:57.905Z,5.30
2018-05-26T07:40:25.770Z,6.00
2018-05-26T07:42:53.530Z,5.90
2018-05-26T07:45:21.513Z,7.60
2018-05-26T07:47:49.468Z,6.93
2018-05-26T07:50:17.062Z,4.00
2018-05-26T07:52:44.832Z,4.93
2018-05-26T07:55:12.684Z,3.73
2018-05-26T07:57:40.242Z,3.80
2018-05-26T08:00:08.364Z,3.97
2018-05-26T08:02:36.109Z,6.50
2018-05-26T08:05:03.767Z,5.70
2018-05-26T08:07:31.316Z,5.47
2018-05-26T08:09:59.285Z,5.65
2018-05-26T08:12:27.132Z,6.70
2018-05-26T08:14:55.228Z,7.37
2018-05-26T08:17:23.079Z,6.35
2018-05-26T08:19:50.710Z,7.03
2018-05-26T08:22:18.387Z,8.05
2018-05-26T08:24:46.496Z,6.87
2018-05-26T08:27:14.243Z,6.35
2018-05-26T08:29:41.791Z,5.75
2018-05-26T08:32:09.375Z,5.85
2018-05-26T08:34:36.921Z,6.45
2018-05-26T08:37:04.737Z,6.12
2018-05-26T08:39:32.440Z,7.40
2018-05-26T08:42:00.263Z,6.72
2018-05-26T08:44:28.077Z,10.07
2018-05-26T08:46:56.129Z,7.53
2018-05-26T08:49:23.932Z,6.47
2018-05-26T08:51:51.786Z,6.53
2018-05-26T08:54:19.627Z,7.32
2018-05-26T08:56:47.207Z,8.40
2018-05-26T08:59:15.527Z,6.18
2018-05-26T09:01:43.451Z,7.95
2018-05-26T09:04:11.252Z,7.45
2018-05-26T09:06:38.844Z,13.13
2018-05-26T09:09:06.428Z,10.07
2018-05-26T09:11:34.116Z,9.18
2018-05-26T09:14:02.635Z,7.53
2018-05-26T09:16:30.517Z,7.68
2018-05-26T09:18:58.305Z,6.60
2018-05-26T09:21:25.862Z,6.93
2018-05-26T09:23:53.620Z,5.78
2018-05-26T09:26:21.905Z,5.22
2018-05-26T09:28:49.847Z,5.47
2018-05-26T09:31:17.746Z,6.05
2018-05-26T09:33:45.641Z,7.37
2018-05-26T09:36:13.311Z,5.57
2018-05-26T09:38:41.494Z,7.65
2018-05-26T09:41:09.297Z,7.87
2018-05-26T09:43:36.870Z,6.37
2018-05-26T09:46:04.617Z,69.85
2018-05-26T09:48:32.169Z,23.35
2018-05-26T09:50:59.972Z,12.40
2018-05-26T09:53:28.370Z,5.97
2018-05-26T09:55:56.090Z,7.72
2018-05-26T09:58:23.649Z,5.85
2018-05-26T10:00:51.655Z,5.10
2018-05-26T10:03:19.416Z,6.00
2018-05-26T10:05:47.124Z,7.47
2018-05-26T10:08:14.837Z,6.18
2018-05-26T10:10:42.388Z,5.00
2018-05-26T10:13:10.126Z,5.97
2018-05-26T10:15:37.976Z,5.65
2018-05-26T10:18:05.839Z,5.62
2018-05-26T10:20:33.719Z,5.87
2018-05-26T10:23:01.663Z,5.93
2018-05-26T10:25:29.857Z,6.32
2018-05-26T10:27:57.866Z,7.07
2018-05-26T10:30:25.630Z,8.23
2018-05-26T10:32:53.475Z,5.10
2018-05-26T10:35:22.103Z,6.72
2018-05-26T10:37:49.888Z,7.43
2018-05-26T10:40:17.437Z,5.70
2018-05-26T10:42:45.324Z,6.37
2018-05-26T10:45:13.440Z,7.03
2018-05-26T10:47:41.221Z,5.57
2018-05-26T10:50:08.782Z,8.73
2018-05-26T10:52:36.930Z,8.20
2018-05-26T10:55:04.860Z,6.37
2018-05-26T10:57:32.596Z,6.65
2018-05-26T11:00:00.184Z,9.13
2018-05-26T11:02:27.899Z,5.85
2018-05-26T11:04:55.464Z,6.30
2018-05-26T11:07:23.361Z,6.60
2018-05-26T11:09:51.600Z,6.18
2018-05-26T11:12:19.160Z,7.65
2018-05-26T11:14:47.552Z,6.45
2018-05-26T11:17:15.307Z,12.00
2018-05-26T11:19:43.318Z,9.13
2018-05-26T11:22:10.919Z,8.18
2018-05-26T11:24:38.555Z,10.13
2018-05-26T11:27:06.295Z,7.28
2018-05-26T11:29:34.176Z,5.43
2018-05-26T11:32:01.868Z,6.18
2018-05-26T11:34:29.665Z,6.05
2018-05-26T11:36:57.262Z,5.53
2018-05-26T11:39:25.389Z,8.65
2018-05-26T11:41:52.950Z,7.82
2018-05-26T11:44:20.533Z,5.80
2018-05-26T11:46:49.194Z,5.40
2018-05-26T11:49:16.873Z,5.75
2018-05-26T11:51:44.459Z,5.25
2018-05-26T11:54:12.378Z,6.28
2018-05-26T11:56:40.026Z,5.70
2018-05-26T11:59:07.760Z,6.55
2018-05-26T12:01:36.161Z,5.70
2018-05-26T12:04:03.956Z,5.55
2018-05-26T12:06:31.946Z,4.78
2018-05-26T12:08:59.802Z,5.30
2018-05-26T12:11:27.452Z,6.32
2018-05-26T12:13:55.040Z,4.93
2018-05-26T12:16:22.595Z,5.30
2018-05-26T12:18:50.147Z,6.10
2018-05-26T12:21:17.889Z,6.93
2018-05-26T12:23:45.456Z,5.12
2018-05-26T12:26:13.407Z,4.78
2018-05-26T12:28:41.033Z,11.82
2018-05-26T12:31:08.708Z,8.55
2018-05-26T12:33:36.271Z,5.22
2018-05-26T12:36:04.324Z,4.80
2018-05-26T12:38:32.481Z,7.87
2018-05-26T12:41:00.216Z,5.47
2018-05-26T12:43:28.123Z,5.07
2018-05-26T12:45:55.685Z,5.65
2018-05-26T12:48:23.427Z,5.53
2018-05-26T12:50:51.820Z,5.82
2018-05-26T12:53:19.368Z,8.18
2018-05-26T12:55:47.680Z,7.12
2018-05-26T12:58:15.290Z,6.05
2018-05-26T13:00:42.905Z,12.02
2018-05-26T13:03:10.464Z,6.20
2018-05-26T13:05:38.101Z,5.47
2018-05-26T13:08:05.866Z,7.72
2018-05-26T13:10:33.451Z,5.43
2018-05-26T13:13:01.066Z,5.35
2018-05-26T13:15:29.606Z,6.00
2018-05-26T13:17:57.386Z,5.10
2018-05-26T13:20:25.316Z,6.80
2018-05-26T13:22:53.316Z,5.32
2018-05-26T13:25:21.203Z,5.05
2018-05-26T13:27:49.345Z,5.47
2018-05-26T13:30:17.043Z,6.57
2018-05-26T13:32:45.551Z,6.22
2018-05-26T13:35:13.337Z,7.60
2018-05-26T13:37:41.214Z,6.03
2018-05-26T13:40:09.546Z,8.52
2018-05-26T13:42:37.318Z,6.75
2018-05-26T13:45:04.920Z,5.65
2018-05-26T13:47:32.481Z,4.50
2018-05-26T13:50:00.440Z,5.80
2018-05-26T13:52:28.066Z,5.12
2018-05-26T13:54:55.820Z,5.07
2018-05-26T13:57:23.488Z,6.78
2018-05-26T13:59:51.369Z,5.57
2018-05-26T14:02:18.954Z,6.90
2018-05-26T14:04:46.585Z,5.03
2018-05-26T14:07:14.158Z,5.47
2018-05-26T14:09:42.209Z,7.82
2018-05-26T14:12:10.198Z,7.60
2018-05-26T14:14:37.740Z,6.18
2018-05-26T14:17:05.568Z,5.72
2018-05-26T14:19:33.965Z,5.05
2018-05-26T14:22:01.513Z,5.37
2018-05-26T14:24:32.364Z,6.65
2018-05-26T14:27:00.357Z,5.65
2018-05-26T14:29:28.100Z,6.87
2018-05-26T14:31:56.034Z,4.20
2018-05-26T14:34:23.884Z,4.55
2018-05-26T14:36:51.514Z,4.87
2018-05-26T14:39:19.396Z,5.68
2018-05-26T14:41:47.257Z,4.47
2018-05-26T14:44:14.893Z,5.57
2018-05-26T14:46:42.816Z,5.60
2018-05-26T14:49:10.853Z,6.62
2018-05-26T14:51:38.433Z,5.72
2018-05-26T14:54:06.371Z,10.73
2018-05-26T14:56:34.228Z,6.87
2018-05-26T14:59:01.779Z,6.28
2018-05-26T15:01:29.772Z,7.12
2018-05-26T15:03:57.364Z,11.88
2018-05-26T15:06:24.928Z,8.93
2018-05-26T15:08:53.691Z,11.05
2018-05-26T15:11:23.268Z,7.43
2018-05-26T15:13:50.858Z,5.80
2018-05-26T15:16:18.443Z,4.90
2018-05-26T15:18:46.812Z,4.72
2018-05-26T15:21:14.367Z,4.25
2018-05-26T15:23:41.982Z,4.20
2018-05-26T15:26:09.594Z,7.90
2018-05-26T15:28:37.544Z,5.12
2018-05-26T15:31:05.441Z,4.53
2018-05-26T15:33:33.808Z,14.00
2018-05-26T15:36:01.517Z,13.70
2018-05-26T15:38:29.079Z,6.90
2018-05-26T15:40:56.763Z,11.02
2018-05-26T15:43:24.731Z,5.22
2018-05-26T15:45:52.288Z,6.45
2018-05-26T15:48:20.476Z,5.47
2018-05-26T15:50:48.049Z,10.10
2018-05-26T15:53:15.771Z,5.93
2018-05-26T15:55:43.446Z,4.90
2018-05-26T15:58:11.455Z,5.12
2018-05-26T16:00:39.054Z,7.37
2018-05-26T16:03:06.848Z,9.05
2018-05-26T16:05:34.416Z,7.75
2018-05-26T16:08:02.174Z,15.88
2018-05-26T16:10:29.952Z,10.30
2018-05-26T16:12:57.523Z,5.57
2018-05-26T16:15:26.375Z,5.05
2018-05-26T16:17:54.373Z,4.72
2018-05-26T16:20:22.261Z,5.85
2018-05-26T16:22:50.199Z,5.35
2018-05-26T16:25:18.852Z,4.97
2018-05-26T16:27:46.584Z,6.85
2018-05-26T16:30:14.382Z,6.80
2018-05-26T16:32:42.228Z,17.80
2018-05-26T16:35:09.807Z,8.38
2018-05-26T16:37:37.532Z,6.87
2018-05-26T16:40:05.128Z,7.07
2018-05-26T16:42:32.932Z,13.88
2018-05-26T16:45:01.383Z,17.23
2018-05-26T16:47:29.249Z,11.45
2018-05-26T16:49:56.819Z,13.02
2018-05-26T16:52:24.733Z,11.07
2018-05-26T16:54:52.480Z,8.48
2018-05-26T16:57:20.285Z,8.18
2018-05-26T16:59:48.152Z,7.85
2018-05-26T17:02:15.921Z,6.28
2018-05-26T17:04:43.862Z,9.10
2018-05-26T17:07:11.770Z,7.25
2018-05-26T17:09:40.429Z,8.73
2018-05-26T17:12:08.687Z,8.70
2018-05-26T17:14:36.236Z,5.18
2018-05-26T17:17:04.014Z,7.72
2018-05-26T17:19:32.218Z,7.70
2018-05-26T17:22:00.155Z,5.10
2018-05-26T17:24:27.771Z,7.03
2018-05-26T17:26:55.327Z,5.73
2018-05-26T17:29:23.648Z,7.83
2018-05-26T17:31:51.434Z,6.97
2018-05-26T17:34:19.079Z,11.07
2018-05-26T17:36:46.669Z,7.97
2018-05-26T17:39:14.465Z,6.00
2018-05-26T17:41:42.258Z,7.40
2018-05-26T17:44:10.107Z,10.60
2018-05-26T17:46:37.831Z,9.70
2018-05-26T17:49:05.381Z,8.93
2018-05-26T17:51:33.120Z,8.30
2018-05-26T17:54:00.989Z,9.10
2018-05-26T17:56:28.580Z,10.03
2018-05-26T17:58:56.530Z,9.17
2018-05-26T18:01:24.380Z,9.20
2018-05-26T18:03:52.454Z,10.77
2018-05-26T18:06:20.013Z,12.23
2018-05-26T18:08:47.772Z,12.30
2018-05-26T18:11:15.337Z,12.80
2018-05-26T18:13:43.378Z,14.37
2018-05-26T18:16:11.377Z,15.10
2018-05-26T18:18:38.985Z,12.67
2018-05-26T18:21:06.880Z,13.93
2018-05-26T18:23:34.491Z,13.57
2018-05-26T18:26:02.346Z,12.87
2018-05-26T18:28:29.928Z,16.00
2018-05-26T18:30:58.290Z,17.90
2018-05-26T18:33:25.840Z,17.60
2018-05-26T18:35:53.395Z,22.93
2018-05-26T18:38:20.980Z,31.83
2018-05-26T18:40:50.241Z,45.90
2018-05-26T18:43:17.913Z,46.87
2018-05-26T18:45:45.963Z,33.43
2018-05-26T18:48:13.528Z,30.63
2018-05-26T18:50:41.081Z,34.83
2018-05-26T18:53:08.688Z,32.30
2018-05-26T18:55:36.450Z,26.53
2018-05-26T18:58:05.050Z,25.77
2018-05-26T19:00:32.657Z,26.93
2018-05-26T19:03:00.393Z,20.10
2018-05-26T19:05:27.947Z,21.23
2018-05-26T19:07:55.602Z,20.27
2018-05-26T19:10:23.355Z,19.00
2018-05-26T19:12:50.987Z,26.00
2018-05-26T19:15:18.899Z,29.27
2018-05-26T19:17:46.493Z,20.53
2018-05-26T19:20:14.372Z,22.37
2018-05-26T19:22:41.955Z,20.67
2018-05-26T19:25:09.520Z,27.73
2018-05-26T19:27:37.110Z,30.33
2018-05-26T19:30:04.710Z,23.43
2018-05-26T19:32:33.224Z,28.87
2018-05-26T19:35:00.885Z,31.87
2018-05-26T19:37:28.475Z,45.27
2018-05-26T19:39:56.571Z,28.57
2018-05-26T19:42:24.636Z,28.63
2018-05-26T19:44:52.470Z,36.87
2018-05-26T19:47:20.603Z,26.03
2018-05-26T19:49:48.618Z,22.13
2018-05-26T19:52:16.621Z,24.33
2018-05-26T19:54:44.981Z,19.33
2018-05-26T19:57:12.930Z,22.90
2018-05-26T19:59:40.553Z,29.00
2018-05-26T20:02:08.418Z,24.63
2018-05-26T20:04:36.309Z,23.53
2018-05-26T20:07:04.119Z,28.77
2018-05-26T20:09:32.156Z,33.60
2018-05-26T20:12:00.209Z,35.83
2018-05-26T20:14:28.078Z,35.13
2018-05-26T20:16:55.732Z,39.67
2018-05-26T20:19:23.631Z,31.50
2018-05-26T20:21:51.370Z,40.33
2018-05-26T20:24:19.128Z,38.53
2018-05-26T20:26:47.418Z,29.70
2018-05-26T20:29:15.137Z,31.10
2018-05-26T20:31:43.514Z,29.57
2018-05-26T20:34:11.630Z,27.43
2018-05-26T20:36:39.391Z,17.43
2018-05-26T20:39:08.044Z,23.27
2018-05-26T20:41:36.432Z,26.00
2018-05-26T20:44:04.146Z,40.07
2018-05-26T20:46:31.950Z,39.60
2018-05-26T20:48:59.541Z,39.80
2018-05-26T20:51:27.343Z,40.90
2018-05-26T20:53:54.897Z,30.40
2018-05-26T20:56:22.460Z,36.10
2018-05-26T20:58:50.056Z,46.70
2018-05-26T21:01:17.633Z,36.40
2018-05-26T21:03:45.606Z,32.63
2018-05-26T21:06:13.363Z,28.77
2018-05-26T21:08:41.219Z,25.20
2018-05-26T21:11:08.780Z,17.83
2018-05-26T21:13:36.880Z,16.00
2018-05-26T21:16:04.591Z,17.17
2018-05-26T21:18:32.409Z,15.00
2018-05-26T21:21:00.405Z,15.60
2018-05-26T21:23:27.994Z,17.17
2018-05-26T21:25:55.626Z,21.73
2018-05-26T21:28:24.292Z,22.63
2018-05-26T21:30:51.968Z,17.30
2018-05-26T21:33:19.619Z,20.43
2018-05-26T21:35:47.210Z,22.77
2018-05-26T21:38:14.959Z,23.27
2018-05-26T21:40:43.280Z,25.10
2018-05-26T21:43:11.107Z,21.30
2018-05-26T21:45:39.425Z,20.40
2018-05-26T21:48:07.071Z,24.33
2018-05-26T21:50:35.084Z,20.63
2018-05-26T21:53:02.736Z,20.97
2018-05-26T21:55:30.297Z,21.20
2018-05-26T21:57:58.291Z,20.83
2018-05-26T22:00:26.616Z,21.93
2018-05-26T22:02:54.375Z,21.17
2018-05-26T22:05:22.468Z,18.23
2018-05-26T22:08:07.025Z,18.10
2018-05-26T22:10:35.272Z,23.20
2018-05-26T22:13:02.831Z,18.47
2018-05-26T22:15:30.936Z,16.17
2018-05-26T22:17:58.585Z,16.33
2018-05-26T22:20:26.304Z,17.47
2018-05-26T22:22:54.743Z,17.50
2018-05-26T22:25:22.578Z,16.83
2018-05-26T22:27:50.420Z,17.10
2018-05-26T22:30:17.996Z,23.07
2018-05-26T22:32:45.970Z,23.30
2018-05-26T22:35:13.867Z,20.93
2018-05-26T22:37:41.771Z,24.80
2018-05-26T22:40:10.216Z,20.70
2018-05-26T22:42:38.274Z,28.70
2018-05-26T22:45:06.025Z,29.93
2018-05-26T22:47:33.648Z,20.50
2018-05-26T22:50:02.010Z,19.60
2018-05-26T22:52:29.573Z,18.77
2018-05-26T22:54:58.195Z,18.23
2018-05-26T22:57:25.768Z,21.63
2018-05-26T22:59:53.315Z,21.33
2018-05-26T23:02:21.036Z,20.67
2018-05-26T23:04:49.677Z,19.00
2018-05-26T23:07:17.244Z,18.13
2018-05-26T23:09:45.067Z,16.10
2018-05-26T23:12:12.845Z,17.33
2018-05-26T23:14:40.544Z,19.10
2018-05-26T23:17:08.224Z,18.47
2018-05-26T23:19:36.543Z,19.83
2018-05-26T23:22:04.127Z,16.13
2018-05-26T23:24:31.910Z,17.60
2018-05-26T23:26:59.568Z,16.07
2018-05-26T23:29:27.273Z,16.10
2018-05-26T23:31:55.181Z,17.30
2018-05-26T23:34:22.736Z,20.33
2018-05-26T23:36:50.475Z,16.50
2018-05-26T23:39:18.164Z,16.27
2018-05-26T23:41:45.816Z,17.07
2018-05-26T23:44:13.493Z,17.47
2018-05-26T23:46:41.094Z,18.67
2018-05-26T23:49:08.817Z,16.03
2018-05-26T23:51:36.645Z,16.00
2018-05-26T23:54:04.232Z,14.77
2018-05-26T23:56:31.900Z,17.93
2018-05-26T23:58:59.631Z,15.33
